createdAt,value
2022-12-06T00:02:06.701Z,1.60
2022-12-06T00:07:10.006Z,2.10
2022-12-06T00:12:12.194Z,2.00
2022-12-06T00:17:14.384Z,1.67
2022-12-06T00:22:16.547Z,2.10
2022-12-06T00:27:18.686Z,1.50
2022-12-06T00:32:21.353Z,1.83
2022-12-06T00:37:23.512Z,1.40
2022-12-06T00:42:25.643Z,1.70
2022-12-06T00:47:27.807Z,1.80
2022-12-06T00:52:29.939Z,1.93
2022-12-06T00:57:32.063Z,2.20
2022-12-06T01:02:34.219Z,2.03
2022-12-06T01:07:36.360Z,2.30
2022-12-06T01:12:38.721Z,1.40
2022-12-06T01:17:40.908Z,1.13
2022-12-06T01:22:43.034Z,2.50
2022-12-06T01:27:45.226Z,2.10
2022-12-06T01:32:47.504Z,1.87
2022-12-06T01:37:49.668Z,2.30
2022-12-06T01:42:51.802Z,2.00
2022-12-06T01:47:53.997Z,2.20
2022-12-06T01:53:08.791Z,2.17
2022-12-06T01:58:13.845Z,2.33
2022-12-06T02:03:21.947Z,1.37
2022-12-06T02:08:25.217Z,1.50
2022-12-06T02:13:27.700Z,2.40
2022-12-06T02:18:45.299Z,1.33
2022-12-06T02:24:25.116Z,1.93
2022-12-06T02:30:08.220Z,1.95
2022-12-06T02:35:18.294Z,2.07
2022-12-06T02:40:23.936Z,1.90
2022-12-06T02:45:29.620Z,2.00
2022-12-06T02:50:39.624Z,2.57
2022-12-06T02:55:42.323Z,2.33
2022-12-06T03:00:56.247Z,2.17
2022-12-06T03:06:01.439Z,2.20
2022-12-06T03:11:04.132Z,2.37
2022-12-06T03:16:28.678Z,2.30
2022-12-06T03:22:00.140Z,1.97
2022-12-06T03:27:06.900Z,2.10
2022-12-06T03:32:10.322Z,2.00
2022-12-06T03:37:16.071Z,2.27
2022-12-06T03:42:19.220Z,2.00
2022-12-06T03:47:26.834Z,3.00
2022-12-06T03:52:30.047Z,2.33
2022-12-06T03:57:32.389Z,1.83
2022-12-06T04:02:34.725Z,2.70
2022-12-06T04:07:37.224Z,1.90
2022-12-06T04:12:57.976Z,2.80
2022-12-06T04:18:16.552Z,1.90
2022-12-06T04:23:19.359Z,2.30
2022-12-06T04:28:40.145Z,2.33
2022-12-06T04:34:00.975Z,2.80
2022-12-06T04:39:03.363Z,2.00
2022-12-06T04:44:06.043Z,2.30
2022-12-06T04:49:08.355Z,2.10
2022-12-06T04:54:10.642Z,3.13
2022-12-06T04:59:16.051Z,1.67
2022-12-06T05:04:18.384Z,2.63
2022-12-06T05:09:20.677Z,2.53
2022-12-06T05:14:23.056Z,1.73
2022-12-06T05:19:25.338Z,2.30
2022-12-06T05:24:27.616Z,2.43
2022-12-06T05:29:30.003Z,2.33
2022-12-06T05:34:32.238Z,2.70
2022-12-06T05:39:34.455Z,2.83
2022-12-06T05:44:37.115Z,2.27
2022-12-06T05:49:39.437Z,2.70
2022-12-06T05:54:41.603Z,2.63
2022-12-06T05:59:43.800Z,2.40
2022-12-06T06:04:46.022Z,2.73
2022-12-06T06:09:48.212Z,2.50
2022-12-06T06:14:50.417Z,2.67
2022-12-06T06:19:52.681Z,2.83
2022-12-06T06:24:54.820Z,2.63
2022-12-06T06:29:57.732Z,2.90
2022-12-06T06:35:00.382Z,3.43
2022-12-06T06:40:03.060Z,2.63
2022-12-06T06:45:06.724Z,2.83
2022-12-06T06:50:09.401Z,2.27
2022-12-06T06:55:11.699Z,2.37
2022-12-06T07:00:17.002Z,3.03
2022-12-06T07:05:19.300Z,4.30
2022-12-06T07:10:21.611Z,2.50
2022-12-06T07:15:23.912Z,3.10
2022-12-06T07:20:26.235Z,2.90
2022-12-06T07:25:28.951Z,2.97
2022-12-06T07:30:32.412Z,1.93
2022-12-06T07:36:10.132Z,3.90
2022-12-06T07:41:24.786Z,2.70
2022-12-06T07:46:27.018Z,2.83
2022-12-06T07:51:29.325Z,3.80
2022-12-06T07:56:34.480Z,2.93
2022-12-06T08:01:37.032Z,3.03
2022-12-06T08:06:39.844Z,2.30
2022-12-06T08:11:42.146Z,3.57
2022-12-06T08:16:44.344Z,3.03
2022-12-06T08:21:46.560Z,2.90
2022-12-06T08:26:49.267Z,2.60
2022-12-06T08:31:51.645Z,4.03
2022-12-06T08:36:54.669Z,2.73
2022-12-06T08:41:59.553Z,3.13
2022-12-06T08:47:02.452Z,2.73
2022-12-06T08:52:04.911Z,3.50
2022-12-06T08:57:07.189Z,2.80
2022-12-06T09:02:13.040Z,3.50
2022-12-06T09:07:16.049Z,4.10
2022-12-06T09:12:30.012Z,3.20
2022-12-06T09:17:32.163Z,3.50
2022-12-06T09:22:34.419Z,2.93
2022-12-06T09:27:36.860Z,3.13
2022-12-06T09:32:39.046Z,3.03
2022-12-06T09:37:41.204Z,2.57
2022-12-06T09:43:28.032Z,3.67
2022-12-06T09:48:48.664Z,2.23
2022-12-06T09:53:58.439Z,3.07
2022-12-06T09:59:00.557Z,3.30
2022-12-06T10:04:58.809Z,2.83
2022-12-06T10:10:32.110Z,2.43
2022-12-06T10:15:38.422Z,2.60
2022-12-06T10:21:08.470Z,2.67
2022-12-06T10:26:17.536Z,2.33
2022-12-06T10:31:19.827Z,2.58
2022-12-06T10:36:45.312Z,2.80
2022-12-06T10:42:02.227Z,1.87
2022-12-06T10:47:15.414Z,2.47
2022-12-06T10:52:44.670Z,2.93
2022-12-06T10:58:12.675Z,2.40
2022-12-06T11:03:43.699Z,2.20
2022-12-06T11:08:56.355Z,2.23
2022-12-06T11:14:09.311Z,2.03
2022-12-06T11:19:27.698Z,2.43
2022-12-06T11:24:35.281Z,2.37
2022-12-06T11:29:37.679Z,2.33
2022-12-06T11:34:58.516Z,2.40
2022-12-06T11:40:09.263Z,2.23
2022-12-06T11:45:46.029Z,2.67
2022-12-06T11:50:49.804Z,1.90
2022-12-06T11:55:54.172Z,2.67
2022-12-06T12:01:06.165Z,2.13
2022-12-06T12:06:33.828Z,3.03
2022-12-06T12:11:38.094Z,3.37
2022-12-06T12:16:46.816Z,3.13
2022-12-06T12:21:54.029Z,2.10
2022-12-06T12:26:56.638Z,1.90
2022-12-06T12:32:02.370Z,2.20
2022-12-06T12:37:05.204Z,2.80
2022-12-06T12:42:28.516Z,1.83
2022-12-06T12:47:32.116Z,2.60
2022-12-06T12:52:39.776Z,2.60
2022-12-06T12:57:44.360Z,1.63
2022-12-06T13:02:51.576Z,1.90
2022-12-06T13:07:56.204Z,2.20
2022-12-06T13:13:04.771Z,1.90
2022-12-06T13:18:27.683Z,2.47
2022-12-06T13:23:35.266Z,1.87
2022-12-06T13:28:41.597Z,2.40
2022-12-06T13:33:58.399Z,2.83
2022-12-06T13:39:46.359Z,2.10
2022-12-06T13:44:48.462Z,2.37
2022-12-06T13:49:50.670Z,1.93
2022-12-06T13:54:52.918Z,2.17
2022-12-06T13:59:55.297Z,1.67
2022-12-06T14:04:57.743Z,3.23
2022-12-06T14:10:12.850Z,2.53
2022-12-06T14:15:19.893Z,1.60
2022-12-06T14:20:24.931Z,1.50
2022-12-06T14:25:32.100Z,1.87
2022-12-06T14:30:34.559Z,2.37
2022-12-06T14:35:37.037Z,1.63
2022-12-06T14:41:00.378Z,1.80
2022-12-06T14:46:05.500Z,1.90
2022-12-06T14:51:28.118Z,1.83
2022-12-06T14:56:34.615Z,2.10
2022-12-06T15:01:47.022Z,1.37
2022-12-06T15:06:55.171Z,1.47
2022-12-06T15:12:37.863Z,1.70
2022-12-06T15:17:40.186Z,1.73
2022-12-06T15:22:46.571Z,1.67
2022-12-06T15:27:48.747Z,3.10
2022-12-06T15:32:50.935Z,1.53
2022-12-06T15:37:53.215Z,1.70
2022-12-06T15:43:00.597Z,1.80
2022-12-06T15:48:04.725Z,1.15
2022-12-06T15:53:24.753Z,1.13
2022-12-06T15:58:27.165Z,1.77
2022-12-06T16:03:29.462Z,1.30
2022-12-06T16:08:34.692Z,1.60
2022-12-06T16:13:36.885Z,1.50
2022-12-06T16:18:39.331Z,1.30
2022-12-06T16:24:15.363Z,1.60
2022-12-06T16:29:23.865Z,1.60
2022-12-06T16:34:27.964Z,1.50
2022-12-06T16:39:31.671Z,1.90
2022-12-06T16:44:33.887Z,1.80
2022-12-06T16:49:48.803Z,1.33
2022-12-06T16:54:51.586Z,1.37
2022-12-06T16:59:55.406Z,3.00
2022-12-06T17:05:01.379Z,1.77
2022-12-06T17:10:07.539Z,1.13
2022-12-06T17:15:15.100Z,1.20
2022-12-06T17:20:18.659Z,1.20
2022-12-06T17:25:20.955Z,1.70
2022-12-06T17:30:23.640Z,1.23
2022-12-06T17:35:26.239Z,1.80
2022-12-06T17:40:28.432Z,1.30
2022-12-06T17:45:30.707Z,1.63
2022-12-06T17:50:36.134Z,1.17
2022-12-06T17:55:38.419Z,1.63
2022-12-06T18:00:40.636Z,1.30
2022-12-06T18:05:45.168Z,0.93
2022-12-06T18:10:47.382Z,1.20
2022-12-06T18:15:52.587Z,1.53
2022-12-06T18:20:54.957Z,1.63
2022-12-06T18:26:01.635Z,1.33
2022-12-06T18:31:04.222Z,2.10
2022-12-06T18:36:07.155Z,1.77
2022-12-06T18:41:20.800Z,1.27
2022-12-06T18:46:24.289Z,1.10
2022-12-06T18:51:30.143Z,0.97
2022-12-06T18:56:33.666Z,1.47
2022-12-06T19:01:39.913Z,1.37
2022-12-06T19:06:47.420Z,1.40
2022-12-06T19:11:49.874Z,1.23
2022-12-06T19:16:52.852Z,1.40
2022-12-06T19:21:55.940Z,1.47
2022-12-06T19:26:58.545Z,1.10
2022-12-06T19:32:02.679Z,1.50
2022-12-06T19:37:04.966Z,1.43
2022-12-06T19:42:25.542Z,1.23
2022-12-06T19:47:27.805Z,1.57
2022-12-06T19:52:32.288Z,1.33
2022-12-06T19:57:34.616Z,1.30
2022-12-06T20:02:37.087Z,1.27
2022-12-06T20:07:39.412Z,1.27
2022-12-06T20:12:41.613Z,1.60
2022-12-06T20:17:43.869Z,1.10
2022-12-06T20:22:46.091Z,1.30
2022-12-06T20:27:51.305Z,1.77
2022-12-06T20:32:53.655Z,1.27
2022-12-06T20:37:55.985Z,1.13
2022-12-06T20:42:58.187Z,0.90
2022-12-06T20:48:00.371Z,1.23
2022-12-06T20:53:02.824Z,1.43
2022-12-06T20:58:04.997Z,1.20
2022-12-06T21:03:07.295Z,1.10
2022-12-06T21:08:13.809Z,1.27
2022-12-06T21:13:16.010Z,0.70
2022-12-06T21:18:19.901Z,1.40
2022-12-06T21:23:22.552Z,1.20
2022-12-06T21:28:24.775Z,0.97
2022-12-06T21:33:27.021Z,1.20
2022-12-06T21:38:32.955Z,1.10
2022-12-06T21:43:36.129Z,1.40
2022-12-06T21:48:38.848Z,0.87
2022-12-06T21:53:41.222Z,1.23
2022-12-06T21:58:43.372Z,0.90
2022-12-06T22:03:49.742Z,1.00
2022-12-06T22:09:00.617Z,1.03
2022-12-06T22:14:05.086Z,0.93
2022-12-06T22:19:07.391Z,1.00
2022-12-06T22:24:09.604Z,0.90
2022-12-06T22:29:11.821Z,1.13
2022-12-06T22:34:14.073Z,1.33
2022-12-06T22:39:16.357Z,1.30
2022-12-06T22:44:19.737Z,1.00
2022-12-06T22:49:21.855Z,1.10
2022-12-06T22:54:24.177Z,1.00
2022-12-06T22:59:26.393Z,1.40
2022-12-06T23:04:28.609Z,1.13
2022-12-06T23:09:30.911Z,1.70
2022-12-06T23:14:33.128Z,1.00
2022-12-06T23:19:35.252Z,1.30
2022-12-06T23:24:37.500Z,0.93
2022-12-06T23:29:39.752Z,0.93
2022-12-06T23:34:41.969Z,1.20
2022-12-06T23:39:44.134Z,1.10
2022-12-06T23:44:46.294Z,1.20
2022-12-06T23:49:48.587Z,1.40
2022-12-06T23:54:53.727Z,1.43
2022-12-06T23:59:55.898Z,1.23
